createdAt,value
2022-11-17T00:01:39.888Z,71.27
2022-11-17T00:04:06.969Z,71.53
2022-11-17T00:06:34.027Z,71.59
2022-11-17T00:09:01.393Z,71.47
2022-11-17T00:11:28.543Z,71.56
2022-11-17T00:13:55.694Z,71.30
2022-11-17T00:16:22.935Z,71.10
2022-11-17T00:18:50.181Z,71.09
2022-11-17T00:21:18.706Z,71.21
2022-11-17T00:23:45.824Z,71.09
2022-11-17T00:26:18.210Z,71.58
2022-11-17T00:28:45.410Z,71.54
2022-11-17T00:31:14.072Z,72.01
2022-11-17T00:33:41.134Z,72.08
2022-11-17T00:36:08.489Z,72.41
2022-11-17T00:38:35.573Z,72.42
2022-11-17T00:41:02.647Z,72.55
2022-11-17T00:43:29.878Z,72.80
2022-11-17T00:45:56.966Z,72.90
2022-11-17T00:48:24.206Z,73.27
2022-11-17T00:50:51.294Z,73.44
2022-11-17T00:53:18.702Z,73.25
2022-11-17T00:55:45.822Z,73.25
2022-11-17T00:58:13.031Z,73.17
2022-11-17T01:00:40.087Z,73.09
2022-11-17T01:03:07.214Z,73.04
2022-11-17T01:05:34.596Z,73.11
2022-11-17T01:08:01.854Z,72.99
2022-11-17T01:10:28.914Z,72.95
2022-11-17T01:12:56.137Z,72.93
2022-11-17T01:15:23.187Z,72.92
2022-11-17T01:17:50.249Z,72.96
2022-11-17T01:20:17.556Z,73.07
2022-11-17T01:22:44.561Z,73.15
2022-11-17T01:25:11.740Z,73.26
2022-11-17T01:27:38.788Z,73.30
2022-11-17T01:30:06.394Z,73.06
2022-11-17T01:32:33.532Z,73.28
2022-11-17T01:35:00.599Z,73.02
2022-11-17T01:37:27.683Z,73.13
2022-11-17T01:39:54.858Z,73.09
2022-11-17T01:42:24.524Z,73.06
2022-11-17T01:45:00.724Z,72.77
2022-11-17T01:47:31.449Z,72.71
2022-11-17T01:50:10.474Z,72.66
2022-11-17T01:52:38.842Z,72.64
2022-11-17T01:55:06.712Z,72.45
2022-11-17T01:57:39.717Z,72.23
2022-11-17T02:00:09.056Z,72.25
2022-11-17T02:02:39.116Z,72.35
2022-11-17T02:05:10.356Z,72.16
2022-11-17T02:07:40.616Z,72.12
2022-11-17T02:10:08.159Z,72.04
2022-11-17T02:12:36.760Z,72.16
2022-11-17T02:15:04.716Z,72.28
2022-11-17T02:17:39.130Z,72.12
2022-11-17T02:20:17.905Z,72.22
2022-11-17T02:23:06.945Z,71.93
2022-11-17T02:26:02.130Z,71.70
2022-11-17T02:28:42.114Z,72.08
2022-11-17T02:31:27.886Z,71.67
2022-11-17T02:34:14.946Z,71.63
2022-11-17T02:36:48.682Z,71.98
2022-11-17T02:39:24.412Z,71.61
2022-11-17T02:42:03.643Z,71.64
2022-11-17T02:44:56.218Z,71.23
2022-11-17T02:47:29.919Z,71.35
2022-11-17T02:50:05.580Z,71.38
2022-11-17T02:52:33.390Z,71.72
2022-11-17T02:55:01.632Z,71.50
2022-11-17T02:57:34.339Z,71.01
2022-11-17T03:00:13.341Z,70.82
2022-11-17T03:02:59.256Z,71.47
2022-11-17T03:05:43.539Z,71.10
2022-11-17T03:08:32.931Z,71.01
2022-11-17T03:11:03.540Z,71.33
2022-11-17T03:13:48.965Z,71.16
2022-11-17T03:16:37.362Z,71.17
2022-11-17T03:19:24.988Z,71.02
2022-11-17T03:22:06.872Z,70.98
2022-11-17T03:24:39.669Z,71.29
2022-11-17T03:27:12.644Z,70.95
2022-11-17T03:29:44.537Z,71.23
2022-11-17T03:32:14.569Z,71.26
2022-11-17T03:34:55.323Z,70.91
2022-11-17T03:37:26.620Z,71.18
2022-11-17T03:39:58.812Z,70.87
2022-11-17T03:42:29.541Z,70.57
2022-11-17T03:45:07.251Z,70.11
2022-11-17T03:47:35.621Z,70.26
2022-11-17T03:50:27.527Z,70.02
2022-11-17T03:52:54.808Z,70.23
2022-11-17T03:55:28.811Z,69.98
2022-11-17T03:58:05.593Z,69.84
2022-11-17T04:00:34.907Z,70.10
2022-11-17T04:03:02.077Z,70.36
2022-11-17T04:05:29.219Z,70.64
2022-11-17T04:07:56.273Z,70.64
2022-11-17T04:10:25.083Z,70.69
2022-11-17T04:12:53.348Z,70.63
2022-11-17T04:15:20.633Z,70.60
2022-11-17T04:17:47.920Z,70.38
2022-11-17T04:20:15.330Z,70.56
2022-11-17T04:22:42.570Z,70.47
2022-11-17T04:25:09.721Z,70.76
2022-11-17T04:27:36.777Z,70.72
2022-11-17T04:30:04.638Z,70.76
2022-11-17T04:32:31.706Z,70.85
2022-11-17T04:34:58.753Z,70.63
2022-11-17T04:37:25.845Z,70.45
2022-11-17T04:39:53.125Z,70.65
2022-11-17T04:42:20.262Z,70.70
2022-11-17T04:44:47.334Z,70.92
2022-11-17T04:47:14.842Z,70.94
2022-11-17T04:49:41.889Z,70.87
2022-11-17T04:52:08.994Z,71.08
2022-11-17T04:54:36.136Z,70.97
2022-11-17T04:57:03.363Z,71.18
2022-11-17T04:59:30.582Z,71.21
2022-11-17T05:02:02.504Z,71.01
2022-11-17T05:04:32.602Z,70.90
2022-11-17T05:06:59.960Z,71.06
2022-11-17T05:09:27.096Z,70.88
2022-11-17T05:11:54.408Z,70.87
2022-11-17T05:14:23.489Z,70.72
2022-11-17T05:16:51.013Z,71.01
2022-11-17T05:19:23.449Z,71.09
2022-11-17T05:21:51.065Z,71.30
2022-11-17T05:24:18.795Z,71.29
2022-11-17T05:26:47.581Z,71.21
2022-11-17T05:29:17.333Z,71.23
2022-11-17T05:31:45.155Z,71.44
2022-11-17T05:34:15.028Z,71.44
2022-11-17T05:36:42.178Z,71.47
2022-11-17T05:39:09.636Z,71.58
2022-11-17T05:41:36.692Z,71.62
2022-11-17T05:44:04.621Z,71.52
2022-11-17T05:46:31.962Z,71.61
2022-11-17T05:48:59.147Z,71.77
2022-11-17T05:51:26.342Z,71.60
2022-11-17T05:53:53.424Z,71.44
2022-11-17T05:56:26.324Z,71.37
2022-11-17T05:58:58.702Z,71.20
2022-11-17T06:01:27.282Z,71.22
2022-11-17T06:03:58.302Z,70.75
2022-11-17T06:06:25.648Z,70.75
2022-11-17T06:08:52.735Z,70.79
2022-11-17T06:11:19.892Z,70.85
2022-11-17T06:13:46.940Z,70.75
2022-11-17T06:16:18.158Z,70.26
2022-11-17T06:18:53.527Z,70.17
2022-11-17T06:21:21.583Z,71.00
2022-11-17T06:23:49.861Z,71.02
2022-11-17T06:26:17.157Z,70.95
2022-11-17T06:28:47.399Z,71.13
2022-11-17T06:31:15.513Z,70.96
2022-11-17T06:33:43.222Z,70.98
2022-11-17T06:36:10.819Z,71.32
2022-11-17T06:38:37.913Z,71.18
2022-11-17T06:41:10.565Z,71.21
2022-11-17T06:43:39.135Z,71.06
2022-11-17T06:46:06.484Z,70.99
2022-11-17T06:48:33.787Z,70.80
2022-11-17T06:51:03.142Z,70.66
2022-11-17T06:53:30.977Z,70.72
2022-11-17T06:55:58.227Z,70.78
2022-11-17T06:58:25.264Z,70.43
2022-11-17T07:00:52.378Z,70.74
2022-11-17T07:03:19.599Z,70.71
2022-11-17T07:05:46.750Z,70.71
2022-11-17T07:08:13.805Z,70.75
2022-11-17T07:10:44.983Z,70.89
2022-11-17T07:13:15.332Z,70.90
2022-11-17T07:15:42.460Z,70.75
2022-11-17T07:18:09.522Z,70.94
2022-11-17T07:20:36.672Z,70.84
2022-11-17T07:23:03.830Z,70.75
2022-11-17T07:25:30.932Z,70.78
2022-11-17T07:27:59.938Z,70.96
2022-11-17T07:30:27.617Z,70.87
2022-11-17T07:32:55.144Z,70.93
2022-11-17T07:35:22.281Z,71.02
2022-11-17T07:37:49.472Z,71.08
2022-11-17T07:40:16.711Z,71.22
2022-11-17T07:42:48.863Z,70.87
2022-11-17T07:45:17.396Z,71.33
2022-11-17T07:47:44.696Z,71.02
2022-11-17T07:50:11.761Z,71.08
2022-11-17T07:52:41.584Z,71.01
2022-11-17T07:55:09.122Z,71.25
2022-11-17T07:57:36.442Z,71.52
2022-11-17T08:00:04.104Z,71.42
2022-11-17T08:02:39.585Z,71.54
2022-11-17T08:05:07.200Z,71.58
2022-11-17T08:07:34.427Z,71.77
2022-11-17T08:10:01.831Z,71.74
2022-11-17T08:12:28.921Z,71.92
2022-11-17T08:14:56.127Z,71.81
2022-11-17T08:17:23.241Z,71.75
2022-11-17T08:19:50.322Z,71.62
2022-11-17T08:22:17.500Z,71.78
2022-11-17T08:24:44.553Z,71.78
2022-11-17T08:27:11.649Z,71.57
2022-11-17T08:29:38.863Z,71.16
2022-11-17T08:32:06.253Z,70.84
2022-11-17T08:34:33.386Z,70.89
2022-11-17T08:37:00.805Z,70.90
2022-11-17T08:39:27.904Z,70.87
2022-11-17T08:41:55.021Z,70.67
2022-11-17T08:44:22.225Z,70.87
2022-11-17T08:46:49.407Z,70.72
2022-11-17T08:49:16.505Z,70.75
2022-11-17T08:51:43.671Z,70.94
2022-11-17T08:54:12.054Z,71.10
2022-11-17T08:56:39.448Z,71.62
2022-11-17T08:59:06.595Z,71.60
2022-11-17T09:01:33.807Z,71.48
2022-11-17T09:04:00.883Z,71.33
2022-11-17T09:06:28.204Z,71.35
2022-11-17T09:08:55.548Z,71.41
2022-11-17T09:11:22.772Z,71.26
2022-11-17T09:13:50.047Z,71.18
2022-11-17T09:16:17.274Z,71.13
2022-11-17T09:18:44.881Z,71.00
2022-11-17T09:21:15.810Z,70.37
2022-11-17T09:23:43.199Z,70.97
2022-11-17T09:26:12.916Z,70.76
2022-11-17T09:28:40.508Z,71.24
2022-11-17T09:31:16.763Z,70.88
2022-11-17T09:33:44.839Z,71.64
2022-11-17T09:36:12.982Z,71.42
2022-11-17T09:38:40.228Z,71.50
2022-11-17T09:41:16.338Z,71.19
2022-11-17T09:43:54.465Z,70.50
2022-11-17T09:46:30.009Z,70.26
2022-11-17T09:49:39.839Z,69.53
2022-11-17T09:52:25.740Z,70.10
2022-11-17T09:54:57.185Z,70.55
2022-11-17T09:57:33.264Z,69.87
2022-11-17T10:00:05.641Z,69.95
2022-11-17T10:02:33.790Z,70.28
2022-11-17T10:05:00.835Z,69.88
2022-11-17T10:07:31.552Z,70.77
2022-11-17T10:10:01.100Z,70.42
2022-11-17T10:12:39.154Z,69.64
2022-11-17T10:15:21.666Z,69.69
2022-11-17T10:17:50.397Z,70.45
2022-11-17T10:20:18.361Z,70.83
2022-11-17T10:22:47.035Z,71.05
2022-11-17T10:25:36.690Z,69.74
2022-11-17T10:28:06.245Z,70.99
2022-11-17T10:30:34.174Z,70.40
2022-11-17T10:33:02.455Z,69.67
2022-11-17T10:35:35.023Z,68.16
2022-11-17T10:38:06.155Z,68.93
2022-11-17T10:40:49.703Z,66.73
2022-11-17T10:43:26.601Z,67.29
2022-11-17T10:45:56.958Z,68.11
2022-11-17T10:48:26.824Z,67.53
2022-11-17T10:51:15.881Z,67.80
2022-11-17T10:53:46.099Z,68.87
2022-11-17T10:56:17.062Z,68.37
2022-11-17T10:59:27.500Z,65.99
2022-11-17T11:01:54.689Z,68.68
2022-11-17T11:04:38.733Z,66.87
2022-11-17T11:07:21.076Z,66.55
2022-11-17T11:10:00.513Z,66.81
2022-11-17T11:12:44.473Z,66.83
2022-11-17T11:15:19.130Z,67.33
2022-11-17T11:17:46.415Z,68.78
2022-11-17T11:20:16.134Z,68.89
2022-11-17T11:23:20.799Z,66.38
2022-11-17T11:25:56.057Z,68.54
2022-11-17T11:28:54.552Z,68.01
2022-11-17T11:31:40.992Z,69.15
2022-11-17T11:34:35.940Z,67.27
2022-11-17T11:37:10.053Z,67.37
2022-11-17T11:40:24.385Z,66.73
2022-11-17T11:42:58.789Z,67.25
2022-11-17T11:45:47.316Z,65.72
2022-11-17T11:48:28.056Z,66.88
2022-11-17T11:50:59.599Z,66.53
2022-11-17T11:53:49.661Z,65.74
2022-11-17T11:56:27.774Z,65.30
2022-11-17T11:59:02.436Z,65.15
2022-11-17T12:01:43.229Z,65.40
2022-11-17T12:04:22.147Z,66.41
2022-11-17T12:07:10.402Z,65.22
2022-11-17T12:10:01.708Z,64.98
2022-11-17T12:12:32.594Z,65.85
2022-11-17T12:15:08.193Z,64.69
2022-11-17T12:17:36.013Z,66.75
2022-11-17T12:20:10.667Z,66.74
2022-11-17T12:22:58.129Z,65.46
2022-11-17T12:25:31.278Z,65.50
2022-11-17T12:27:58.552Z,67.01
2022-11-17T12:30:34.862Z,65.28
2022-11-17T12:33:04.961Z,66.50
2022-11-17T12:35:36.658Z,65.54
2022-11-17T12:38:16.044Z,65.02
2022-11-17T12:40:46.069Z,66.47
2022-11-17T12:43:16.069Z,66.04
2022-11-17T12:45:58.278Z,65.32
2022-11-17T12:48:35.004Z,66.35
2022-11-17T12:51:47.593Z,65.52
2022-11-17T12:54:38.236Z,64.93
2022-11-17T12:57:13.784Z,64.80
2022-11-17T13:00:00.857Z,64.21
2022-11-17T13:02:51.211Z,64.40
2022-11-17T13:05:21.363Z,65.69
2022-11-17T13:07:48.828Z,66.30
2022-11-17T13:10:24.952Z,63.44
2022-11-17T13:13:09.576Z,60.83
2022-11-17T13:15:36.937Z,65.31
2022-11-17T13:18:10.561Z,63.36
2022-11-17T13:20:38.798Z,64.96
2022-11-17T13:23:23.876Z,62.66
2022-11-17T13:25:52.025Z,64.76
2022-11-17T13:28:27.368Z,63.00
2022-11-17T13:30:54.889Z,64.87
2022-11-17T13:33:23.817Z,64.43
2022-11-17T13:36:08.895Z,62.82
2022-11-17T13:38:36.105Z,64.79
2022-11-17T13:41:05.218Z,64.10
2022-11-17T13:43:39.357Z,61.51
2022-11-17T13:46:06.621Z,64.20
2022-11-17T13:48:44.457Z,63.34
2022-11-17T13:51:25.902Z,62.38
2022-11-17T13:54:16.900Z,62.54
2022-11-17T13:56:47.264Z,62.21
2022-11-17T13:59:25.133Z,62.35
2022-11-17T14:02:10.569Z,62.70
2022-11-17T14:04:37.743Z,63.99
2022-11-17T14:07:04.873Z,63.56
2022-11-17T14:09:32.742Z,63.28
2022-11-17T14:12:00.838Z,63.24
2022-11-17T14:14:36.193Z,61.89
2022-11-17T14:17:18.825Z,61.50
2022-11-17T14:19:46.875Z,63.14
2022-11-17T14:22:21.398Z,63.07
2022-11-17T14:24:51.144Z,63.20
2022-11-17T14:27:26.651Z,61.65
2022-11-17T14:29:53.800Z,63.34
2022-11-17T14:32:20.950Z,63.46
2022-11-17T14:34:48.081Z,63.42
2022-11-17T14:37:15.400Z,63.50
2022-11-17T14:39:42.465Z,63.59
2022-11-17T14:42:10.972Z,63.47
2022-11-17T14:44:38.226Z,63.58
2022-11-17T14:47:05.348Z,63.65
2022-11-17T14:49:32.449Z,63.49
2022-11-17T14:51:59.566Z,63.53
2022-11-17T14:54:26.787Z,63.73
2022-11-17T14:56:53.962Z,63.77
2022-11-17T14:59:21.104Z,63.68
2022-11-17T15:01:48.288Z,63.85
2022-11-17T15:07:28.467Z,64.06
2022-11-17T15:09:55.709Z,64.24
2022-11-17T15:12:22.802Z,64.42
2022-11-17T15:14:50.424Z,64.39
2022-11-17T15:17:17.482Z,64.29
2022-11-17T15:19:44.939Z,64.56
2022-11-17T15:22:12.171Z,64.95
2022-11-17T15:24:39.248Z,64.80
2022-11-17T15:27:06.662Z,64.94
2022-11-17T15:29:33.883Z,64.96
2022-11-17T15:32:01.033Z,64.91
2022-11-17T15:34:29.001Z,64.99
2022-11-17T15:36:56.091Z,65.05
2022-11-17T15:39:23.404Z,65.12
2022-11-17T15:41:50.562Z,65.25
2022-11-17T15:44:18.268Z,65.29
2022-11-17T15:46:47.586Z,65.23
2022-11-17T15:49:15.523Z,65.44
2022-11-17T15:51:42.806Z,65.53
2022-11-17T15:54:18.484Z,65.58
2022-11-17T15:56:47.061Z,65.66
2022-11-17T15:59:14.617Z,65.79
2022-11-17T16:01:42.056Z,65.98
2022-11-17T16:04:11.950Z,66.06
2022-11-17T16:06:40.959Z,66.12
2022-11-17T16:09:09.644Z,66.23
2022-11-17T16:11:37.074Z,66.19
2022-11-17T16:14:05.237Z,66.09
2022-11-17T16:16:37.733Z,66.09
2022-11-17T16:19:05.656Z,66.04
2022-11-17T16:21:33.200Z,66.03
2022-11-17T16:24:00.436Z,66.03
2022-11-17T16:26:28.997Z,66.05
2022-11-17T16:28:58.109Z,65.92
2022-11-17T16:31:27.326Z,65.93
2022-11-17T16:34:02.868Z,66.56
2022-11-17T16:36:36.643Z,66.46
2022-11-17T16:39:06.982Z,66.79
2022-11-17T16:41:36.567Z,66.73
2022-11-17T16:44:08.614Z,66.85
2022-11-17T16:46:35.894Z,66.83
2022-11-17T16:49:05.832Z,66.68
2022-11-17T16:51:34.251Z,66.79
2022-11-17T16:54:07.023Z,66.74
2022-11-17T16:56:34.625Z,66.78
2022-11-17T16:59:02.663Z,66.95
2022-11-17T17:01:31.738Z,67.00
2022-11-17T17:04:07.770Z,67.37
2022-11-17T17:06:35.854Z,67.09
2022-11-17T17:09:07.704Z,66.88
2022-11-17T17:11:36.832Z,67.00
2022-11-17T17:14:06.687Z,67.38
2022-11-17T17:16:35.302Z,67.32
2022-11-17T17:19:04.454Z,67.65
2022-11-17T17:21:32.388Z,67.77
2022-11-17T17:23:59.453Z,68.12
2022-11-17T17:26:29.021Z,68.49
2022-11-17T17:28:57.952Z,68.93
2022-11-17T17:31:28.771Z,69.16
2022-11-17T17:33:56.139Z,69.34
2022-11-17T17:36:25.054Z,69.51
2022-11-17T17:38:56.238Z,69.67
2022-11-17T17:41:28.337Z,69.71
2022-11-17T17:43:58.306Z,69.67
2022-11-17T17:46:26.480Z,69.71
2022-11-17T17:48:53.368Z,69.96
2022-11-17T17:51:22.721Z,69.66
2022-11-17T17:53:49.936Z,69.63
2022-11-17T17:56:19.173Z,69.52
2022-11-17T17:58:46.797Z,69.49
2022-11-17T18:01:22.762Z,69.29
2022-11-17T18:03:51.678Z,69.14
2022-11-17T18:06:20.573Z,68.89
2022-11-17T18:08:48.778Z,68.57
2022-11-17T18:11:18.337Z,68.30
2022-11-17T18:13:47.786Z,68.32
2022-11-17T18:16:20.282Z,68.46
2022-11-17T18:18:48.091Z,68.29
2022-11-17T18:21:17.749Z,68.23
2022-11-17T18:23:45.600Z,68.02
2022-11-17T18:26:12.738Z,68.05
2022-11-17T18:28:39.912Z,68.19
2022-11-17T18:31:07.752Z,68.16
2022-11-17T18:33:35.559Z,68.24
2022-11-17T18:36:05.781Z,68.43
2022-11-17T18:38:35.108Z,68.29
2022-11-17T18:41:09.386Z,68.44
2022-11-17T18:43:36.970Z,68.52
2022-11-17T18:46:33.768Z,68.63
2022-11-17T18:49:01.068Z,68.72
2022-11-17T18:51:30.844Z,69.01
2022-11-17T18:53:59.521Z,69.12
2022-11-17T18:56:37.586Z,68.91
2022-11-17T18:59:06.743Z,69.02
2022-11-17T19:01:34.152Z,68.91
2022-11-17T19:04:01.384Z,69.04
2022-11-17T19:06:29.273Z,68.90
2022-11-17T19:08:58.884Z,68.97
2022-11-17T19:11:27.483Z,68.73
2022-11-17T19:13:54.592Z,68.89
2022-11-17T19:16:24.171Z,68.95
2022-11-17T19:18:54.106Z,68.97
2022-11-17T19:21:23.686Z,69.01
2022-11-17T19:23:52.163Z,69.20
2022-11-17T19:26:21.942Z,69.07
2022-11-17T19:28:49.628Z,69.08
2022-11-17T19:31:20.043Z,68.71
2022-11-17T19:33:49.110Z,68.73
2022-11-17T19:36:19.535Z,68.70
2022-11-17T19:38:51.194Z,68.55
2022-11-17T19:41:27.015Z,68.54
2022-11-17T19:43:55.789Z,68.98
2022-11-17T19:46:24.216Z,68.92
2022-11-17T19:48:51.982Z,68.92
2022-11-17T19:51:30.600Z,68.71
2022-11-17T19:54:01.112Z,69.10
2022-11-17T19:56:28.881Z,69.02
2022-11-17T19:58:56.096Z,69.31
2022-11-17T20:01:25.488Z,69.21
2022-11-17T20:03:53.196Z,69.19
2022-11-17T20:06:22.777Z,69.21
2022-11-17T20:08:50.212Z,69.20
2022-11-17T20:11:20.005Z,68.93
2022-11-17T20:13:47.832Z,69.00
2022-11-17T20:16:17.666Z,68.83
2022-11-17T20:18:48.437Z,68.90
2022-11-17T20:21:15.523Z,68.91
2022-11-17T20:23:42.923Z,69.08
2022-11-17T20:26:18.850Z,68.57
2022-11-17T20:28:47.207Z,69.05
2022-11-17T20:31:23.301Z,68.28
2022-11-17T20:33:51.149Z,68.84
2022-11-17T20:36:20.584Z,68.93
2022-11-17T20:38:51.920Z,68.61
2022-11-17T20:41:19.962Z,68.94
2022-11-17T20:43:48.281Z,69.10
2022-11-17T20:46:15.545Z,68.94
2022-11-17T20:48:42.775Z,69.01
2022-11-17T20:51:12.183Z,68.94
2022-11-17T20:53:39.905Z,68.98
2022-11-17T20:56:09.426Z,68.84
2022-11-17T20:58:36.680Z,68.82
2022-11-17T21:01:30.400Z,68.31
2022-11-17T21:03:57.783Z,68.71
2022-11-17T21:06:25.231Z,68.82
2022-11-17T21:08:52.818Z,68.60
2022-11-17T21:11:22.228Z,68.67
2022-11-17T21:13:49.426Z,68.77
2022-11-17T21:16:16.465Z,68.86
2022-11-17T21:18:48.155Z,68.35
2022-11-17T21:21:15.906Z,68.79
2022-11-17T21:23:43.798Z,68.79
2022-11-17T21:26:13.475Z,68.83
2022-11-17T21:28:40.864Z,68.70
2022-11-17T21:31:11.909Z,68.63
2022-11-17T21:33:39.885Z,68.68
2022-11-17T21:36:12.397Z,68.71
2022-11-17T21:38:40.006Z,68.64
2022-11-17T21:41:27.509Z,68.27
2022-11-17T21:43:58.067Z,68.84
2022-11-17T21:46:27.037Z,68.37
2022-11-17T21:48:56.148Z,68.37
2022-11-17T21:51:28.743Z,68.43
2022-11-17T21:53:57.577Z,68.21
2022-11-17T21:56:26.049Z,68.06
2022-11-17T21:58:57.331Z,67.87
2022-11-17T22:01:25.151Z,68.13
2022-11-17T22:03:52.510Z,68.36
2022-11-17T22:06:21.478Z,68.81
2022-11-17T22:08:49.000Z,68.93
2022-11-17T22:11:18.806Z,68.92
2022-11-17T22:13:46.014Z,69.25
2022-11-17T22:16:13.809Z,69.32
2022-11-17T22:18:41.363Z,69.20
2022-11-17T22:21:08.751Z,69.23
2022-11-17T22:23:35.926Z,69.10
2022-11-17T22:26:05.436Z,68.78
2022-11-17T22:28:32.792Z,68.81
2022-11-17T22:31:04.146Z,68.66
2022-11-17T22:33:31.229Z,68.57
2022-11-17T22:36:02.545Z,67.69
2022-11-17T22:38:29.669Z,68.53
2022-11-17T22:41:04.619Z,67.78
2022-11-17T22:43:32.022Z,68.38
2022-11-17T22:46:03.956Z,67.82
2022-11-17T22:48:31.904Z,68.37
2022-11-17T22:51:00.055Z,68.22
2022-11-17T22:53:27.097Z,67.83
2022-11-17T22:55:54.633Z,67.82
2022-11-17T22:58:21.752Z,67.75
2022-11-17T23:00:48.901Z,67.78
2022-11-17T23:03:15.986Z,67.92
2022-11-17T23:05:43.128Z,68.12
2022-11-17T23:08:10.322Z,68.48
2022-11-17T23:10:37.923Z,68.72
2022-11-17T23:13:05.108Z,69.01
2022-11-17T23:15:32.251Z,69.18
2022-11-17T23:17:59.517Z,69.33
2022-11-17T23:20:26.644Z,69.39
2022-11-17T23:22:53.720Z,69.54
2022-11-17T23:25:21.389Z,69.60
2022-11-17T23:27:48.489Z,69.85
2022-11-17T23:30:16.043Z,69.71
2022-11-17T23:32:43.164Z,69.79
2022-11-17T23:35:10.437Z,69.97
2022-11-17T23:37:37.592Z,70.16
2022-11-17T23:40:05.096Z,70.21
2022-11-17T23:42:32.818Z,70.19
2022-11-17T23:45:00.572Z,70.35
2022-11-17T23:47:27.717Z,70.22
2022-11-17T23:49:54.760Z,70.25
2022-11-17T23:52:21.857Z,70.50
2022-11-17T23:54:48.966Z,70.36
2022-11-17T23:57:16.222Z,70.51
2022-11-17T23:59:43.332Z,70.45
